createdAt,value
2022-12-26T00:02:12.233Z,101235.72
2022-12-26T00:04:48.119Z,101228.81
2022-12-26T00:07:19.287Z,101220.50
2022-12-26T00:09:45.660Z,101217.84
2022-12-26T00:12:12.061Z,101210.66
2022-12-26T00:14:39.353Z,101228.69
2022-12-26T00:17:05.743Z,101236.16
2022-12-26T00:19:32.076Z,101229.81
2022-12-26T00:21:58.491Z,101236.25
2022-12-26T00:24:24.842Z,101246.28
2022-12-26T00:26:51.197Z,101236.25
2022-12-26T00:29:17.549Z,101226.97
2022-12-26T00:31:43.968Z,101224.56
2022-12-26T00:34:10.435Z,101230.63
2022-12-26T00:36:37.360Z,101220.78
2022-12-26T00:39:03.883Z,101227.31
2022-12-26T00:41:31.083Z,101214.91
2022-12-26T00:43:57.506Z,101230.22
2022-12-26T00:46:24.283Z,101216.59
2022-12-26T00:48:50.722Z,101222.19
2022-12-26T00:51:17.479Z,101193.53
2022-12-26T00:53:44.184Z,101203.34
2022-12-26T00:56:11.384Z,101218.50
2022-12-26T00:58:38.397Z,101210.53
2022-12-26T01:01:06.853Z,101231.88
2022-12-26T01:03:33.361Z,101229.22
2022-12-26T01:06:02.321Z,101225.53
2022-12-26T01:08:28.769Z,101229.22
2022-12-26T01:10:55.155Z,101199.84
2022-12-26T01:13:21.608Z,101230.06
2022-12-26T01:15:52.375Z,101232.91
2022-12-26T01:18:19.616Z,101236.16
2022-12-26T01:20:46.123Z,101250.63
2022-12-26T01:23:12.596Z,101247.94
2022-12-26T01:26:18.863Z,101250.63
2022-12-26T01:28:26.555Z,101246.09
2022-12-26T01:30:53.015Z,101244.28
2022-12-26T01:33:19.495Z,101244.28
2022-12-26T01:35:53.056Z,101246.94
2022-12-26T01:38:21.011Z,101247.81
2022-12-26T01:40:48.452Z,101243.59
2022-12-26T01:43:16.078Z,101253.84
2022-12-26T01:45:49.587Z,101248.78
2022-12-26T01:48:22.688Z,101244.66
2022-12-26T01:50:55.839Z,101245.69
2022-12-26T01:53:32.794Z,101247.34
2022-12-26T01:56:05.793Z,101250.34
2022-12-26T01:58:38.014Z,101242.31
2022-12-26T02:01:08.225Z,101217.97
2022-12-26T02:03:56.374Z,101246.34
2022-12-26T02:06:22.727Z,101250.19
2022-12-26T02:08:49.191Z,101244.66
2022-12-26T02:11:26.950Z,101252.56
2022-12-26T02:13:54.617Z,101251.03
2022-12-26T02:16:21.785Z,101260.31
2022-12-26T02:18:48.173Z,101249.75
2022-12-26T02:21:59.346Z,101261.16
2022-12-26T02:24:50.395Z,101253.13
2022-12-26T02:27:32.114Z,101245.78
2022-12-26T02:30:04.848Z,101254.22
2022-12-26T02:32:40.326Z,101251.16
2022-12-26T02:35:21.827Z,101242.13
2022-12-26T02:38:07.924Z,101234.09
2022-12-26T02:41:09.401Z,101234.50
2022-12-26T02:43:50.703Z,101228.28
2022-12-26T02:46:58.600Z,101232.53
2022-12-26T02:50:21.955Z,101241.53
2022-12-26T02:53:29.476Z,101226.31
2022-12-26T02:56:19.066Z,101228.16
2022-12-26T02:59:55.672Z,101228.16
2022-12-26T03:03:02.095Z,101222.09
2022-12-26T03:05:52.031Z,101213.06
2022-12-26T03:08:44.311Z,101205.59
2022-12-26T03:11:29.636Z,101204.66
2022-12-26T03:14:05.220Z,101209.72
2022-12-26T03:16:50.998Z,101191.00
2022-12-26T03:19:19.365Z,101209.28
2022-12-26T03:21:47.690Z,101214.06
2022-12-26T03:24:16.871Z,101213.06
2022-12-26T03:26:53.655Z,101216.47
2022-12-26T03:29:41.434Z,101217.53
2022-12-26T03:32:11.015Z,101206.97
2022-12-26T03:34:44.871Z,101217.41
2022-12-26T03:37:11.189Z,101214.72
2022-12-26T03:40:35.364Z,101213.19
2022-12-26T03:43:42.118Z,101216.94
2022-12-26T03:46:40.301Z,101211.97
2022-12-26T03:49:41.507Z,101213.66
2022-12-26T03:52:52.331Z,101219.41
2022-12-26T03:55:50.781Z,101221.69
2022-12-26T03:58:49.039Z,101199.19
2022-12-26T04:01:41.543Z,101200.72
2022-12-26T04:04:30.236Z,101200.88
2022-12-26T04:07:21.432Z,101197.50
2022-12-26T04:10:12.733Z,101194.13
2022-12-26T04:13:00.523Z,101199.03
2022-12-26T04:16:06.440Z,101198.88
2022-12-26T04:19:03.757Z,101192.69
2022-12-26T04:22:00.894Z,101204.63
2022-12-26T04:24:51.244Z,101214.19
2022-12-26T04:27:39.012Z,101223.91
2022-12-26T04:30:24.748Z,101218.25
2022-12-26T04:33:16.372Z,101201.97
2022-12-26T04:36:05.354Z,101219.91
2022-12-26T04:39:00.129Z,101217.09
2022-12-26T04:41:48.242Z,101207.53
2022-12-26T04:44:17.199Z,101186.31
2022-12-26T04:46:48.612Z,101209.75
2022-12-26T04:49:36.238Z,101213.81
2022-12-26T04:52:05.689Z,101222.53
2022-12-26T04:54:32.252Z,101208.44
2022-12-26T04:56:58.637Z,101200.41
2022-12-26T04:59:25.858Z,101200.13
2022-12-26T05:02:10.903Z,101193.59
2022-12-26T05:04:56.095Z,101193.44
2022-12-26T05:07:47.838Z,101191.06
2022-12-26T05:10:23.558Z,101196.91
2022-12-26T05:12:50.298Z,101192.22
2022-12-26T05:15:17.031Z,101204.09
2022-12-26T05:18:02.088Z,101199.56
2022-12-26T05:20:31.028Z,101193.91
2022-12-26T05:23:19.034Z,101197.66
2022-12-26T05:26:05.444Z,101187.53
2022-12-26T05:28:44.042Z,101191.38
2022-12-26T05:31:16.978Z,101193.31
2022-12-26T05:34:02.621Z,101198.56
2022-12-26T05:36:33.456Z,101186.72
2022-12-26T05:39:00.583Z,101177.16
2022-12-26T05:41:27.169Z,101204.63
2022-12-26T05:43:53.526Z,101199.03
2022-12-26T05:46:20.078Z,101203.41
2022-12-26T05:48:46.498Z,101197.34
2022-12-26T05:51:13.111Z,101190.31
2022-12-26T05:53:39.542Z,101168.97
2022-12-26T05:56:09.680Z,101189.94
2022-12-26T05:58:36.307Z,101193.84
2022-12-26T06:01:17.333Z,101191.31
2022-12-26T06:03:47.690Z,101194.53
2022-12-26T06:06:15.306Z,101188.34
2022-12-26T06:08:41.756Z,101193.69
2022-12-26T06:11:11.762Z,101188.63
2022-12-26T06:13:38.730Z,101187.63
2022-12-26T06:16:11.041Z,101190.31
2022-12-26T06:18:38.217Z,101181.81
2022-12-26T06:21:06.767Z,101189.69
2022-12-26T06:23:34.230Z,101185.34
2022-12-26T06:26:01.086Z,101179.00
2022-12-26T06:28:27.987Z,101187.34
2022-12-26T06:30:54.400Z,101188.34
2022-12-26T06:33:20.759Z,101184.50
2022-12-26T06:35:47.141Z,101158.09
2022-12-26T06:38:14.205Z,101172.56
2022-12-26T06:40:41.445Z,101182.84
2022-12-26T06:43:08.831Z,101144.69
2022-12-26T06:45:35.715Z,101169.81
2022-12-26T06:48:02.425Z,101150.28
2022-12-26T06:50:29.055Z,101167.97
2022-12-26T06:52:55.415Z,101169.13
2022-12-26T06:55:21.797Z,101167.97
2022-12-26T06:57:48.187Z,101153.53
2022-12-26T07:00:15.209Z,101169.25
2022-12-26T07:02:41.704Z,101163.25
2022-12-26T07:05:08.257Z,101155.50
2022-12-26T07:07:34.666Z,101160.94
2022-12-26T07:10:01.094Z,101152.81
2022-12-26T07:12:27.453Z,101143.88
2022-12-26T07:14:59.701Z,101151.59
2022-12-26T07:17:27.807Z,101144.88
2022-12-26T07:19:54.151Z,101140.19
2022-12-26T07:22:20.498Z,101152.91
2022-12-26T07:24:46.843Z,101148.00
2022-12-26T07:27:13.213Z,101152.91
2022-12-26T07:29:39.616Z,101150.38
2022-12-26T07:32:06.219Z,101140.88
2022-12-26T07:34:32.622Z,101135.75
2022-12-26T07:36:59.008Z,101145.94
2022-12-26T07:39:25.384Z,101144.75
2022-12-26T07:41:57.671Z,101143.91
2022-12-26T07:44:32.508Z,101142.94
2022-12-26T07:47:00.512Z,101140.56
2022-12-26T07:49:27.145Z,101140.41
2022-12-26T07:51:53.541Z,101131.22
2022-12-26T07:54:20.011Z,101128.84
2022-12-26T07:56:46.387Z,101130.09
2022-12-26T07:59:17.523Z,101129.91
2022-12-26T08:01:44.756Z,101131.97
2022-12-26T08:04:11.731Z,101136.94
2022-12-26T08:06:38.144Z,101135.44
2022-12-26T08:09:05.458Z,101125.25
2022-12-26T08:11:35.206Z,101127.06
2022-12-26T08:14:02.051Z,101135.44
2022-12-26T08:16:28.755Z,101126.38
2022-12-26T08:18:55.137Z,101118.34
2022-12-26T08:21:21.514Z,101108.94
2022-12-26T08:23:48.432Z,101107.41
2022-12-26T08:26:20.669Z,101105.75
2022-12-26T08:28:47.304Z,101098.84
2022-12-26T08:31:14.197Z,101103.75
2022-12-26T08:33:40.913Z,101074.53
2022-12-26T08:36:10.176Z,101103.75
2022-12-26T08:38:37.140Z,101099.78
2022-12-26T08:41:04.680Z,101115.38
2022-12-26T08:43:53.202Z,101113.19
2022-12-26T08:46:19.802Z,101122.44
2022-12-26T08:48:47.308Z,101118.25
2022-12-26T08:51:16.914Z,101114.19
2022-12-26T08:53:43.811Z,101097.59
2022-12-26T08:56:17.179Z,101117.72
2022-12-26T08:58:44.610Z,101127.59
2022-12-26T09:01:17.489Z,101132.13
2022-12-26T09:03:44.627Z,101134.81
2022-12-26T09:06:13.373Z,101132.28
2022-12-26T09:08:40.383Z,101128.97
2022-12-26T09:11:10.946Z,101145.91
2022-12-26T09:13:38.569Z,101125.47
2022-12-26T09:16:07.479Z,101101.81
2022-12-26T09:18:33.925Z,101122.31
2022-12-26T09:21:01.406Z,101121.59
2022-12-26T09:23:28.732Z,101112.56
2022-12-26T09:25:55.125Z,101109.91
2022-12-26T09:28:22.173Z,101089.94
2022-12-26T09:30:48.595Z,101113.28
2022-12-26T09:33:14.976Z,101106.38
2022-12-26T09:35:41.714Z,101103.41
2022-12-26T09:38:08.079Z,101105.22
2022-12-26T09:40:59.096Z,101107.63
2022-12-26T09:43:37.799Z,101105.06
2022-12-26T09:46:16.667Z,101105.38
2022-12-26T09:49:01.027Z,101121.31
2022-12-26T09:51:29.705Z,101123.63
2022-12-26T09:53:56.512Z,101133.72
2022-12-26T09:59:19.077Z,101140.59
2022-12-26T10:01:49.037Z,101149.53
2022-12-26T10:04:29.834Z,101144.53
2022-12-26T10:07:20.820Z,101127.72
2022-12-26T10:09:57.657Z,101123.78
2022-12-26T10:12:53.792Z,101136.22
2022-12-26T10:15:35.711Z,101153.28
2022-12-26T10:18:37.062Z,101153.53
2022-12-26T10:21:37.336Z,101153.16
2022-12-26T10:24:16.480Z,101180.34
2022-12-26T10:26:54.375Z,101180.56
2022-12-26T10:29:25.656Z,101198.94
2022-12-26T10:31:56.797Z,101216.19
2022-12-26T10:34:32.139Z,101206.53
2022-12-26T10:37:11.317Z,101217.94
2022-12-26T10:39:51.777Z,101207.13
2022-12-26T10:42:26.432Z,101192.16
2022-12-26T10:44:52.918Z,101185.91
2022-12-26T10:47:30.492Z,101210.72
2022-12-26T10:49:59.847Z,101216.47
2022-12-26T10:52:32.322Z,101213.81
2022-12-26T10:55:27.975Z,101234.69
2022-12-26T10:57:50.647Z,101221.22
2022-12-26T11:00:24.328Z,101236.88
2022-12-26T11:03:04.362Z,101224.16
2022-12-26T11:08:20.653Z,101260.06
2022-12-26T11:11:06.026Z,101269.34
2022-12-26T11:13:38.202Z,101274.56
2022-12-26T11:16:05.321Z,101273.72
2022-12-26T11:18:47.067Z,101268.94
2022-12-26T11:21:19.298Z,101291.00
2022-12-26T11:23:47.874Z,101302.59
2022-12-26T11:26:30.318Z,101310.22
2022-12-26T11:29:07.987Z,101325.69
2022-12-26T11:31:34.652Z,101347.66
2022-12-26T11:34:01.553Z,101342.28
2022-12-26T11:36:30.173Z,101359.91
2022-12-26T11:39:00.725Z,101354.41
2022-12-26T11:41:33.662Z,101351.03
2022-12-26T11:44:24.761Z,101360.03
2022-12-26T11:46:56.394Z,101360.31
2022-12-26T11:49:29.850Z,101363.84
2022-12-26T11:51:59.795Z,101362.84
2022-12-26T11:54:34.758Z,101350.44
2022-12-26T11:57:16.612Z,101370.44
2022-12-26T11:59:43.338Z,101390.13
2022-12-26T12:02:24.219Z,101387.31
2022-12-26T12:04:53.441Z,101380.84
2022-12-26T12:07:47.472Z,101387.16
2022-12-26T12:10:47.691Z,101394.03
2022-12-26T12:13:46.035Z,101393.47
2022-12-26T12:16:48.769Z,101400.38
2022-12-26T12:19:34.044Z,101406.28
2022-12-26T12:22:24.851Z,101407.84
2022-12-26T12:25:43.980Z,101411.94
2022-12-26T12:28:23.752Z,101413.31
2022-12-26T12:31:11.998Z,101417.69
2022-12-26T12:33:53.491Z,101412.78
2022-12-26T12:36:32.345Z,101411.25
2022-12-26T12:39:28.137Z,101410.94
2022-12-26T12:42:03.762Z,101423.16
2022-12-26T12:44:52.717Z,101424.16
2022-12-26T12:47:37.043Z,101424.56
2022-12-26T12:50:17.230Z,101433.00
2022-12-26T12:52:58.301Z,101423.03
2022-12-26T12:56:00.024Z,101441.91
2022-12-26T12:58:44.659Z,101425.53
2022-12-26T13:01:18.392Z,101407.38
2022-12-26T13:03:56.668Z,101435.94
2022-12-26T13:06:35.889Z,101449.72
2022-12-26T13:09:26.390Z,101448.31
2022-12-26T13:12:05.273Z,101457.06
2022-12-26T13:14:38.443Z,101459.47
2022-12-26T13:17:11.841Z,101470.28
2022-12-26T13:19:48.686Z,101482.38
2022-12-26T13:22:50.589Z,101481.00
2022-12-26T13:25:18.896Z,101478.41
2022-12-26T13:27:46.804Z,101486.66
2022-12-26T13:30:16.621Z,101470.75
2022-12-26T13:32:46.553Z,101481.78
2022-12-26T13:35:50.729Z,101501.28
2022-12-26T13:38:17.127Z,101507.47
2022-12-26T13:40:47.218Z,101508.84
2022-12-26T13:43:41.229Z,101513.03
2022-12-26T13:46:32.244Z,101525.44
2022-12-26T13:48:59.471Z,101522.41
2022-12-26T13:51:53.697Z,101523.13
2022-12-26T13:54:22.302Z,101530.00
2022-12-26T13:57:14.620Z,101528.06
2022-12-26T14:00:05.553Z,101533.28
2022-12-26T14:03:16.795Z,101526.63
2022-12-26T14:06:07.313Z,101530.84
2022-12-26T14:08:55.276Z,101539.25
2022-12-26T14:11:53.007Z,101538.41
2022-12-26T14:14:22.391Z,101533.59
2022-12-26T14:16:56.620Z,101519.13
2022-12-26T14:19:44.386Z,101550.16
2022-12-26T14:22:19.991Z,101553.06
2022-12-26T14:25:20.806Z,101548.50
2022-12-26T14:27:55.376Z,101549.00
2022-12-26T14:30:39.072Z,101551.69
2022-12-26T14:33:23.467Z,101559.19
2022-12-26T14:36:13.855Z,101565.19
2022-12-26T14:38:50.086Z,101574.41
2022-12-26T14:41:37.315Z,101583.88
2022-12-26T14:44:37.017Z,101578.81
2022-12-26T14:47:05.062Z,101583.44
2022-12-26T14:49:35.449Z,101586.81
2022-12-26T14:52:32.116Z,101601.78
2022-12-26T14:54:58.575Z,101607.44
2022-12-26T14:57:46.868Z,101622.09
2022-12-26T15:00:22.360Z,101626.81
2022-12-26T15:03:20.973Z,101638.53
2022-12-26T15:05:51.206Z,101643.75
2022-12-26T15:08:20.435Z,101642.03
2022-12-26T15:11:22.144Z,101654.22
2022-12-26T15:14:09.993Z,101654.94
2022-12-26T15:16:39.157Z,101654.56
2022-12-26T15:19:27.366Z,101662.25
2022-12-26T15:22:06.977Z,101658.25
2022-12-26T15:25:20.467Z,101654.38
2022-12-26T15:28:15.934Z,101662.56
2022-12-26T15:30:45.459Z,101666.25
2022-12-26T15:33:26.987Z,101668.19
2022-12-26T15:36:13.603Z,101668.84
2022-12-26T15:38:45.930Z,101663.63
2022-12-26T15:41:50.294Z,101661.97
2022-12-26T15:44:39.494Z,101666.25
2022-12-26T15:47:42.447Z,101669.81
2022-12-26T15:50:25.355Z,101680.47
2022-12-26T15:53:05.216Z,101675.00
2022-12-26T15:56:01.018Z,101678.78
2022-12-26T15:58:53.985Z,101679.88
2022-12-26T16:01:40.819Z,101689.16
2022-12-26T16:04:25.349Z,101693.91
2022-12-26T16:07:00.544Z,101693.50
2022-12-26T16:09:43.548Z,101704.13
2022-12-26T16:12:24.198Z,101698.16
2022-12-26T16:15:17.566Z,101698.16
2022-12-26T16:17:44.429Z,101700.75
2022-12-26T16:20:42.993Z,101702.00
2022-12-26T16:23:16.569Z,101697.44
2022-12-26T16:25:48.127Z,101703.09
2022-12-26T16:28:14.807Z,101708.03
2022-12-26T16:30:41.319Z,101716.53
2022-12-26T16:33:08.104Z,101721.13
2022-12-26T16:35:37.874Z,101729.53
2022-12-26T16:38:07.796Z,101728.59
2022-12-26T16:40:42.104Z,101722.13
2022-12-26T16:43:17.513Z,101720.66
2022-12-26T16:45:46.685Z,101717.25
2022-12-26T16:48:16.293Z,101731.47
2022-12-26T16:50:55.780Z,101713.22
2022-12-26T16:53:41.167Z,101734.44
2022-12-26T16:56:27.876Z,101731.47
2022-12-26T16:59:17.580Z,101737.63
2022-12-26T17:01:59.135Z,101739.88
2022-12-26T17:04:28.558Z,101733.78
2022-12-26T17:07:00.199Z,101719.28
2022-12-26T17:09:31.081Z,101738.06
2022-12-26T17:12:03.655Z,101746.78
2022-12-26T17:14:35.933Z,101761.88
2022-12-26T17:17:24.841Z,101760.78
2022-12-26T17:19:54.588Z,101766.34
2022-12-26T17:22:28.651Z,101768.13
2022-12-26T17:25:17.741Z,101764.63
2022-12-26T17:27:45.232Z,101768.66
2022-12-26T17:30:27.321Z,101766.34
2022-12-26T17:32:54.361Z,101769.63
2022-12-26T17:35:26.671Z,101771.41
2022-12-26T17:38:19.435Z,101762.16
2022-12-26T17:40:47.266Z,101785.44
2022-12-26T17:43:13.548Z,101790.75
2022-12-26T17:45:46.561Z,101789.06
2022-12-26T17:48:13.591Z,101783.31
2022-12-26T17:50:43.873Z,101787.59
2022-12-26T17:53:22.426Z,101794.47
2022-12-26T17:55:50.408Z,101791.63
2022-12-26T17:58:16.856Z,101790.66
2022-12-26T18:00:44.809Z,101791.41
2022-12-26T18:03:11.861Z,101791.25
2022-12-26T18:05:38.917Z,101786.63
2022-12-26T18:08:05.909Z,101798.53
2022-12-26T18:10:35.750Z,101797.25
2022-12-26T18:13:02.810Z,101809.91
2022-12-26T18:15:30.972Z,101810.22
2022-12-26T18:17:57.696Z,101809.81
2022-12-26T18:20:29.689Z,101819.13
2022-12-26T18:22:56.921Z,101806.09
2022-12-26T18:25:25.541Z,101813.44
2022-12-26T18:27:52.810Z,101820.88
2022-12-26T18:30:22.388Z,101820.97
2022-12-26T18:32:50.286Z,101828.66
2022-12-26T18:35:17.221Z,101822.03
2022-12-26T18:37:47.214Z,101813.00
2022-12-26T18:40:26.209Z,101781.38
2022-12-26T18:42:52.580Z,101813.75
2022-12-26T18:45:18.930Z,101818.94
2022-12-26T18:47:45.298Z,101835.50
2022-12-26T18:50:12.933Z,101835.09
2022-12-26T18:52:39.276Z,101841.44
2022-12-26T18:55:05.971Z,101841.66
2022-12-26T18:57:32.321Z,101844.84
2022-12-26T18:59:58.671Z,101841.25
2022-12-26T19:02:25.367Z,101847.16
2022-12-26T19:04:51.731Z,101854.75
2022-12-26T19:07:20.251Z,101859.63
2022-12-26T19:09:55.583Z,101842.88
2022-12-26T19:12:23.258Z,101859.44
2022-12-26T19:14:50.082Z,101868.84
2022-12-26T19:17:18.012Z,101871.22
2022-12-26T19:19:44.441Z,101868.94
2022-12-26T19:22:11.195Z,101879.63
2022-12-26T19:24:37.649Z,101874.16
2022-12-26T19:27:04.373Z,101879.47
2022-12-26T19:29:30.778Z,101884.22
2022-12-26T19:31:57.423Z,101865.28
2022-12-26T19:34:24.256Z,101885.56
2022-12-26T19:36:50.619Z,101881.19
2022-12-26T19:39:17.041Z,101894.44
2022-12-26T19:41:43.414Z,101894.44
2022-12-26T19:44:10.190Z,101900.31
2022-12-26T19:46:36.574Z,101892.00
2022-12-26T19:49:03.023Z,101910.66
2022-12-26T19:51:29.400Z,101911.50
2022-12-26T19:53:55.810Z,101904.69
2022-12-26T19:56:24.948Z,101911.50
2022-12-26T19:58:56.371Z,101908.56
2022-12-26T20:01:26.195Z,101909.81
2022-12-26T20:03:57.802Z,101920.19
2022-12-26T20:06:26.438Z,101927.78
2022-12-26T20:08:57.033Z,101915.06
2022-12-26T20:11:30.873Z,101930.72
2022-12-26T20:13:58.893Z,101930.34
2022-12-26T20:19:12.962Z,101937.78
2022-12-26T20:21:39.507Z,101928.88
2022-12-26T20:24:05.912Z,101941.28
2022-12-26T20:26:32.367Z,101950.28
2022-12-26T20:29:03.100Z,101938.72
2022-12-26T20:31:31.549Z,101943.84
2022-12-26T20:33:58.325Z,101948.13
2022-12-26T20:36:27.897Z,101940.19
2022-12-26T20:38:57.080Z,101944.00
2022-12-26T20:41:24.767Z,101932.28
2022-12-26T20:43:51.506Z,101918.94
2022-12-26T20:46:20.955Z,101926.06
2022-12-26T20:48:49.543Z,101929.03
2022-12-26T20:51:25.408Z,101930.13
2022-12-26T20:53:52.506Z,101937.72
2022-12-26T20:56:19.637Z,101936.28
2022-12-26T20:58:46.342Z,101938.00
2022-12-26T21:01:15.610Z,101941.03
2022-12-26T21:03:42.613Z,101954.59
2022-12-26T21:06:16.471Z,101943.78
2022-12-26T21:08:45.451Z,101946.50
2022-12-26T21:11:18.013Z,101951.25
2022-12-26T21:13:46.199Z,101962.63
2022-12-26T21:16:14.660Z,101954.22
2022-12-26T21:18:42.253Z,101962.72
2022-12-26T21:21:12.216Z,101953.34
2022-12-26T21:23:39.158Z,101943.47
2022-12-26T21:26:06.115Z,101956.75
2022-12-26T21:28:33.540Z,101964.91
2022-12-26T21:31:00.491Z,101963.97
2022-12-26T21:33:29.967Z,101960.38
2022-12-26T21:35:56.332Z,101968.13
2022-12-26T21:38:26.856Z,101970.78
2022-12-26T21:40:53.219Z,101973.38
2022-12-26T21:43:19.645Z,101964.28
2022-12-26T21:45:46.004Z,101956.91
2022-12-26T21:48:12.408Z,101962.13
2022-12-26T21:50:44.410Z,101961.56
2022-12-26T21:53:10.907Z,101955.88
2022-12-26T21:55:38.653Z,101956.81
2022-12-26T21:58:07.386Z,101963.38
2022-12-26T22:00:35.338Z,101968.13
2022-12-26T22:03:21.186Z,101970.22
2022-12-26T22:05:47.658Z,101966.25
2022-12-26T22:08:14.142Z,101982.03
2022-12-26T22:11:02.572Z,101983.84
2022-12-26T22:13:32.075Z,101970.00
2022-12-26T22:16:04.248Z,101992.06
2022-12-26T22:18:40.072Z,101991.69
2022-12-26T22:21:11.933Z,101997.47
2022-12-26T22:23:39.905Z,102008.78
2022-12-26T22:26:07.748Z,102006.50
2022-12-26T22:28:34.547Z,102005.06
2022-12-26T22:31:01.371Z,101983.53
2022-12-26T22:33:28.402Z,102005.31
2022-12-26T22:35:54.990Z,101981.78
2022-12-26T22:38:21.938Z,101986.06
2022-12-26T22:40:59.053Z,101987.59
2022-12-26T22:43:26.255Z,102021.53
2022-12-26T22:45:53.033Z,102014.88
2022-12-26T22:48:19.790Z,102022.47
2022-12-26T22:50:48.071Z,102014.78
2022-12-26T22:53:14.775Z,101999.97
2022-12-26T22:55:49.369Z,102021.59
2022-12-26T22:58:16.843Z,102018.81
2022-12-26T23:00:44.440Z,102016.50
2022-12-26T23:03:11.139Z,102013.47
2022-12-26T23:05:38.894Z,102007.50
2022-12-26T23:08:06.719Z,102002.03
2022-12-26T23:10:33.717Z,102012.72
2022-12-26T23:13:00.538Z,102002.41
2022-12-26T23:15:28.234Z,102019.25
2022-12-26T23:18:25.696Z,102016.97
2022-12-26T23:21:11.959Z,102016.06
2022-12-26T23:23:38.708Z,102012.00
2022-12-26T23:26:05.120Z,101995.22
2022-12-26T23:28:49.982Z,102006.41
2022-12-26T23:31:16.432Z,102012.16
2022-12-26T23:33:42.914Z,102007.81
2022-12-26T23:36:09.411Z,102014.25
2022-12-26T23:38:35.779Z,102014.56
2022-12-26T23:41:02.125Z,102021.84
2022-12-26T23:43:28.538Z,101988.94
2022-12-26T23:45:55.005Z,102016.81
2022-12-26T23:48:21.367Z,102008.94
2022-12-26T23:50:49.405Z,102014.13
2022-12-26T23:53:15.777Z,102021.59
2022-12-26T23:55:42.161Z,102022.72
2022-12-26T23:58:08.845Z,102020.78
